sensor_id;sensor_type;location;lat;lon;timestamp;P1;durP1;ratioP1;P2;durP2;ratioP2
35839;SDS011;35514;50.504;30.500;2023-05-23T00:00:18;8.68;;;3.05;;
35839;SDS011;35514;50.504;30.500;2023-05-23T00:02:48;5.40;;;2.72;;
35839;SDS011;35514;50.504;30.500;2023-05-23T00:05:16;5.53;;;2.85;;
35839;SDS011;35514;50.504;30.500;2023-05-23T00:07:48;4.35;;;2.72;;
35839;SDS011;35514;50.504;30.500;2023-05-23T00:10:16;3.53;;;2.40;;
35839;SDS011;35514;50.504;30.500;2023-05-23T00:12:43;7.47;;;2.72;;
35839;SDS011;35514;50.504;30.500;2023-05-23T00:15:14;8.30;;;3.00;;
35839;SDS011;35514;50.504;30.500;2023-05-23T00:17:42;4.32;;;2.65;;
35839;SDS011;35514;50.504;30.500;2023-05-23T00:20:10;4.50;;;2.70;;
35839;SDS011;35514;50.504;30.500;2023-05-23T00:22:38;4.28;;;2.80;;
35839;SDS011;35514;50.504;30.500;2023-05-23T00:25:11;7.53;;;2.90;;
35839;SDS011;35514;50.504;30.500;2023-05-23T00:27:39;5.82;;;2.83;;
35839;SDS011;35514;50.504;30.500;2023-05-23T00:30:06;6.03;;;3.47;;
35839;SDS011;35514;50.504;30.500;2023-05-23T00:32:34;4.90;;;2.55;;
35839;SDS011;35514;50.504;30.500;2023-05-23T00:35:03;5.35;;;2.72;;
35839;SDS011;35514;50.504;30.500;2023-05-23T00:37:31;5.35;;;3.10;;
35839;SDS011;35514;50.504;30.500;2023-05-23T00:39:59;4.50;;;2.47;;
35839;SDS011;35514;50.504;30.500;2023-05-23T00:42:29;3.38;;;2.47;;
35839;SDS011;35514;50.504;30.500;2023-05-23T00:44:57;6.20;;;2.63;;
35839;SDS011;35514;50.504;30.500;2023-05-23T00:47:25;6.60;;;2.90;;
35839;SDS011;35514;50.504;30.500;2023-05-23T00:49:55;4.38;;;2.25;;
35839;SDS011;35514;50.504;30.500;2023-05-23T00:52:25;8.65;;;2.70;;
35839;SDS011;35514;50.504;30.500;2023-05-23T00:54:53;3.92;;;2.45;;
35839;SDS011;35514;50.504;30.500;2023-05-23T00:57:21;4.30;;;2.40;;
35839;SDS011;35514;50.504;30.500;2023-05-23T00:59:51;5.20;;;2.92;;
35839;SDS011;35514;50.504;30.500;2023-05-23T01:02:19;4.47;;;2.53;;
35839;SDS011;35514;50.504;30.500;2023-05-23T01:04:48;6.07;;;2.88;;
35839;SDS011;35514;50.504;30.500;2023-05-23T01:07:19;6.35;;;2.47;;
35839;SDS011;35514;50.504;30.500;2023-05-23T01:09:47;8.27;;;2.80;;
35839;SDS011;35514;50.504;30.500;2023-05-23T01:12:18;4.72;;;2.55;;
35839;SDS011;35514;50.504;30.500;2023-05-23T01:14:48;5.13;;;2.47;;
35839;SDS011;35514;50.504;30.500;2023-05-23T01:17:21;4.32;;;2.63;;
35839;SDS011;35514;50.504;30.500;2023-05-23T01:19:54;3.65;;;2.53;;
35839;SDS011;35514;50.504;30.500;2023-05-23T01:22:40;8.45;;;2.75;;
35839;SDS011;35514;50.504;30.500;2023-05-23T01:25:16;5.13;;;2.20;;
35839;SDS011;35514;50.504;30.500;2023-05-23T01:27:52;6.38;;;2.40;;
35839;SDS011;35514;50.504;30.500;2023-05-23T01:30:20;4.72;;;2.67;;
35839;SDS011;35514;50.504;30.500;2023-05-23T01:32:50;3.90;;;2.47;;
35839;SDS011;35514;50.504;30.500;2023-05-23T01:35:21;3.30;;;2.30;;
35839;SDS011;35514;50.504;30.500;2023-05-23T01:37:53;4.70;;;2.55;;
35839;SDS011;35514;50.504;30.500;2023-05-23T01:40:21;6.60;;;2.10;;
35839;SDS011;35514;50.504;30.500;2023-05-23T01:42:48;5.82;;;2.20;;
35839;SDS011;35514;50.504;30.500;2023-05-23T01:45:18;3.22;;;2.35;;
35839;SDS011;35514;50.504;30.500;2023-05-23T01:47:46;4.75;;;2.47;;
35839;SDS011;35514;50.504;30.500;2023-05-23T01:50:16;4.25;;;2.35;;
35839;SDS011;35514;50.504;30.500;2023-05-23T01:52:44;5.05;;;2.10;;
35839;SDS011;35514;50.504;30.500;2023-05-23T01:55:13;6.03;;;2.75;;
35839;SDS011;35514;50.504;30.500;2023-05-23T01:57:44;7.80;;;2.50;;
35839;SDS011;35514;50.504;30.500;2023-05-23T02:00:14;5.55;;;2.00;;
35839;SDS011;35514;50.504;30.500;2023-05-23T02:02:43;3.95;;;2.30;;
35839;SDS011;35514;50.504;30.500;2023-05-23T02:05:11;5.80;;;2.28;;
35839;SDS011;35514;50.504;30.500;2023-05-23T02:07:38;4.40;;;2.17;;
35839;SDS011;35514;50.504;30.500;2023-05-23T02:10:07;3.50;;;2.20;;
35839;SDS011;35514;50.504;30.500;2023-05-23T02:12:35;2.83;;;2.13;;
35839;SDS011;35514;50.504;30.500;2023-05-23T02:15:03;4.43;;;2.00;;
35839;SDS011;35514;50.504;30.500;2023-05-23T02:17:31;2.95;;;1.95;;
35839;SDS011;35514;50.504;30.500;2023-05-23T02:20:00;3.95;;;2.03;;
35839;SDS011;35514;50.504;30.500;2023-05-23T02:22:27;6.78;;;2.67;;
35839;SDS011;35514;50.504;30.500;2023-05-23T02:24:55;7.57;;;2.43;;
35839;SDS011;35514;50.504;30.500;2023-05-23T02:27:22;2.97;;;1.90;;
35839;SDS011;35514;50.504;30.500;2023-05-23T02:29:50;9.05;;;2.42;;
35839;SDS011;35514;50.504;30.500;2023-05-23T02:32:17;4.60;;;2.15;;
35839;SDS011;35514;50.504;30.500;2023-05-23T02:34:45;3.83;;;2.17;;
35839;SDS011;35514;50.504;30.500;2023-05-23T02:37:17;6.00;;;2.50;;
35839;SDS011;35514;50.504;30.500;2023-05-23T02:39:44;9.50;;;3.15;;
35839;SDS011;35514;50.504;30.500;2023-05-23T02:42:12;6.93;;;2.17;;
35839;SDS011;35514;50.504;30.500;2023-05-23T02:44:40;5.38;;;2.55;;
35839;SDS011;35514;50.504;30.500;2023-05-23T02:47:07;4.78;;;3.13;;
35839;SDS011;35514;50.504;30.500;2023-05-23T02:49:36;3.53;;;2.17;;
35839;SDS011;35514;50.504;30.500;2023-05-23T02:52:05;4.72;;;2.47;;
35839;SDS011;35514;50.504;30.500;2023-05-23T02:54:34;5.53;;;2.10;;
35839;SDS011;35514;50.504;30.500;2023-05-23T03:04:24;3.63;;;2.22;;
35839;SDS011;35514;50.504;30.500;2023-05-23T03:06:52;4.95;;;2.38;;
35839;SDS011;35514;50.504;30.500;2023-05-23T03:09:20;5.80;;;2.47;;
35839;SDS011;35514;50.504;30.500;2023-05-23T03:11:49;4.60;;;2.53;;
35839;SDS011;35514;50.504;30.500;2023-05-23T03:14:17;8.02;;;2.47;;
35839;SDS011;35514;50.504;30.500;2023-05-23T03:16:45;7.68;;;2.58;;
35839;SDS011;35514;50.504;30.500;2023-05-23T03:19:12;5.30;;;2.60;;
35839;SDS011;35514;50.504;30.500;2023-05-23T03:21:40;6.22;;;2.45;;
35839;SDS011;35514;50.504;30.500;2023-05-23T03:24:09;4.85;;;2.28;;
35839;SDS011;35514;50.504;30.500;2023-05-23T03:26:37;4.18;;;2.38;;
35839;SDS011;35514;50.504;30.500;2023-05-23T03:29:06;14.00;;;2.40;;
35839;SDS011;35514;50.504;30.500;2023-05-23T03:31:36;4.70;;;2.72;;
35839;SDS011;35514;50.504;30.500;2023-05-23T03:34:04;11.40;;;2.30;;
35839;SDS011;35514;50.504;30.500;2023-05-23T03:36:32;4.40;;;2.40;;
35839;SDS011;35514;50.504;30.500;2023-05-23T03:39:00;6.10;;;2.40;;
35839;SDS011;35514;50.504;30.500;2023-05-23T03:41:28;5.78;;;3.35;;
35839;SDS011;35514;50.504;30.500;2023-05-23T03:43:58;3.08;;;2.30;;
35839;SDS011;35514;50.504;30.500;2023-05-23T03:46:28;4.53;;;2.70;;
35839;SDS011;35514;50.504;30.500;2023-05-23T03:48:55;5.25;;;2.83;;
35839;SDS011;35514;50.504;30.500;2023-05-23T03:51:23;7.43;;;3.15;;
35839;SDS011;35514;50.504;30.500;2023-05-23T03:53:51;3.95;;;2.55;;
35839;SDS011;35514;50.504;30.500;2023-05-23T03:56:19;5.10;;;2.80;;
35839;SDS011;35514;50.504;30.500;2023-05-23T03:58:46;4.88;;;2.67;;
35839;SDS011;35514;50.504;30.500;2023-05-23T04:01:14;7.10;;;3.17;;
35839;SDS011;35514;50.504;30.500;2023-05-23T04:03:43;8.63;;;2.97;;
35839;SDS011;35514;50.504;30.500;2023-05-23T04:06:11;5.82;;;3.00;;
35839;SDS011;35514;50.504;30.500;2023-05-23T04:08:39;9.05;;;3.10;;
35839;SDS011;35514;50.504;30.500;2023-05-23T04:11:08;8.80;;;3.00;;
35839;SDS011;35514;50.504;30.500;2023-05-23T04:13:36;5.35;;;3.13;;
35839;SDS011;35514;50.504;30.500;2023-05-23T04:16:04;7.30;;;2.90;;
35839;SDS011;35514;50.504;30.500;2023-05-23T04:18:32;5.07;;;3.05;;
35839;SDS011;35514;50.504;30.500;2023-05-23T04:21:01;12.50;;;4.22;;
35839;SDS011;35514;50.504;30.500;2023-05-23T04:23:28;8.30;;;3.70;;
35839;SDS011;35514;50.504;30.500;2023-05-23T04:25:56;6.75;;;3.05;;
35839;SDS011;35514;50.504;30.500;2023-05-23T04:28:24;5.80;;;3.20;;
35839;SDS011;35514;50.504;30.500;2023-05-23T04:30:53;6.93;;;3.22;;
35839;SDS011;35514;50.504;30.500;2023-05-23T04:33:22;7.40;;;3.00;;
35839;SDS011;35514;50.504;30.500;2023-05-23T04:35:50;6.55;;;3.33;;
35839;SDS011;35514;50.504;30.500;2023-05-23T04:38:19;19.83;;;3.17;;
35839;SDS011;35514;50.504;30.500;2023-05-23T04:40:47;7.50;;;3.25;;
35839;SDS011;35514;50.504;30.500;2023-05-23T04:43:18;7.70;;;3.22;;
35839;SDS011;35514;50.504;30.500;2023-05-23T04:45:46;7.03;;;3.55;;
35839;SDS011;35514;50.504;30.500;2023-05-23T04:48:15;9.05;;;4.05;;
35839;SDS011;35514;50.504;30.500;2023-05-23T04:50:43;4.80;;;3.03;;
35839;SDS011;35514;50.504;30.500;2023-05-23T04:53:13;13.05;;;3.72;;
35839;SDS011;35514;50.504;30.500;2023-05-23T04:55:42;5.82;;;3.42;;
35839;SDS011;35514;50.504;30.500;2023-05-23T04:58:09;10.05;;;3.03;;
35839;SDS011;35514;50.504;30.500;2023-05-23T05:00:38;5.97;;;3.40;;
35839;SDS011;35514;50.504;30.500;2023-05-23T05:03:06;11.23;;;4.30;;
35839;SDS011;35514;50.504;30.500;2023-05-23T05:05:35;9.13;;;4.35;;
35839;SDS011;35514;50.504;30.500;2023-05-23T05:08:02;10.20;;;3.63;;
35839;SDS011;35514;50.504;30.500;2023-05-23T05:10:34;6.60;;;3.33;;
35839;SDS011;35514;50.504;30.500;2023-05-23T05:13:05;8.35;;;3.88;;
35839;SDS011;35514;50.504;30.500;2023-05-23T05:15:33;7.20;;;3.42;;
35839;SDS011;35514;50.504;30.500;2023-05-23T05:18:01;7.95;;;3.90;;
35839;SDS011;35514;50.504;30.500;2023-05-23T05:20:29;14.80;;;3.33;;
35839;SDS011;35514;50.504;30.500;2023-05-23T05:22:57;12.75;;;4.07;;
35839;SDS011;35514;50.504;30.500;2023-05-23T05:25:25;4.78;;;2.85;;
35839;SDS011;35514;50.504;30.500;2023-05-23T05:27:57;7.80;;;4.18;;
35839;SDS011;35514;50.504;30.500;2023-05-23T05:30:26;11.15;;;3.70;;
35839;SDS011;35514;50.504;30.500;2023-05-23T05:32:57;10.63;;;2.85;;
35839;SDS011;35514;50.504;30.500;2023-05-23T05:35:24;6.65;;;3.53;;
35839;SDS011;35514;50.504;30.500;2023-05-23T05:37:52;11.55;;;3.22;;
35839;SDS011;35514;50.504;30.500;2023-05-23T05:40:20;12.02;;;3.50;;
35839;SDS011;35514;50.504;30.500;2023-05-23T05:42:47;8.05;;;3.47;;
35839;SDS011;35514;50.504;30.500;2023-05-23T05:45:15;6.72;;;3.25;;
35839;SDS011;35514;50.504;30.500;2023-05-23T05:47:44;9.88;;;3.17;;
35839;SDS011;35514;50.504;30.500;2023-05-23T05:50:12;9.63;;;3.25;;
35839;SDS011;35514;50.504;30.500;2023-05-23T05:52:40;9.80;;;2.97;;
35839;SDS011;35514;50.504;30.500;2023-05-23T05:55:08;8.20;;;3.00;;
35839;SDS011;35514;50.504;30.500;2023-05-23T05:57:37;14.02;;;3.50;;
35839;SDS011;35514;50.504;30.500;2023-05-23T06:00:05;8.35;;;3.45;;
35839;SDS011;35514;50.504;30.500;2023-05-23T06:02:38;14.40;;;3.03;;
35839;SDS011;35514;50.504;30.500;2023-05-23T06:11:08;7.25;;;2.80;;
35839;SDS011;35514;50.504;30.500;2023-05-23T06:13:54;5.07;;;2.55;;
35839;SDS011;35514;50.504;30.500;2023-05-23T06:16:25;5.60;;;3.05;;
35839;SDS011;35514;50.504;30.500;2023-05-23T06:18:53;9.05;;;3.10;;
35839;SDS011;35514;50.504;30.500;2023-05-23T06:21:25;6.43;;;2.72;;
35839;SDS011;35514;50.504;30.500;2023-05-23T06:24:25;5.28;;;2.60;;
35839;SDS011;35514;50.504;30.500;2023-05-23T06:32:33;5.30;;;2.50;;
35839;SDS011;35514;50.504;30.500;2023-05-23T06:35:02;7.03;;;3.00;;
35839;SDS011;35514;50.504;30.500;2023-05-23T06:37:29;4.80;;;3.03;;
35839;SDS011;35514;50.504;30.500;2023-05-23T06:39:57;7.85;;;2.85;;
35839;SDS011;35514;50.504;30.500;2023-05-23T06:42:25;5.30;;;2.40;;
35839;SDS011;35514;50.504;30.500;2023-05-23T06:44:53;5.63;;;3.10;;
35839;SDS011;35514;50.504;30.500;2023-05-23T06:47:20;15.77;;;2.95;;
35839;SDS011;35514;50.504;30.500;2023-05-23T06:49:50;6.30;;;3.05;;
35839;SDS011;35514;50.504;30.500;2023-05-23T06:52:17;7.55;;;3.25;;
35839;SDS011;35514;50.504;30.500;2023-05-23T06:54:45;7.15;;;3.97;;
35839;SDS011;35514;50.504;30.500;2023-05-23T06:57:12;4.20;;;2.60;;
35839;SDS011;35514;50.504;30.500;2023-05-23T06:59:40;5.85;;;2.72;;
35839;SDS011;35514;50.504;30.500;2023-05-23T07:02:07;4.35;;;2.97;;
35839;SDS011;35514;50.504;30.500;2023-05-23T07:04:35;10.43;;;5.15;;
35839;SDS011;35514;50.504;30.500;2023-05-23T07:07:05;5.53;;;2.90;;
35839;SDS011;35514;50.504;30.500;2023-05-23T07:09:33;8.43;;;3.15;;
35839;SDS011;35514;50.504;30.500;2023-05-23T07:12:00;9.35;;;3.08;;
35839;SDS011;35514;50.504;30.500;2023-05-23T07:14:28;5.40;;;2.97;;
35839;SDS011;35514;50.504;30.500;2023-05-23T07:16:56;5.90;;;2.97;;
35839;SDS011;35514;50.504;30.500;2023-05-23T07:19:24;8.05;;;3.00;;
35839;SDS011;35514;50.504;30.500;2023-05-23T07:21:52;10.73;;;3.25;;
35839;SDS011;35514;50.504;30.500;2023-05-23T07:24:24;5.55;;;2.88;;
35839;SDS011;35514;50.504;30.500;2023-05-23T07:26:51;9.38;;;3.03;;
35839;SDS011;35514;50.504;30.500;2023-05-23T07:29:20;6.30;;;2.75;;
35839;SDS011;35514;50.504;30.500;2023-05-23T07:31:47;7.13;;;3.03;;
35839;SDS011;35514;50.504;30.500;2023-05-23T07:34:15;5.35;;;2.78;;
35839;SDS011;35514;50.504;30.500;2023-05-23T07:36:44;9.40;;;3.00;;
35839;SDS011;35514;50.504;30.500;2023-05-23T07:39:16;6.38;;;2.65;;
35839;SDS011;35514;50.504;30.500;2023-05-23T07:41:49;6.10;;;2.60;;
35839;SDS011;35514;50.504;30.500;2023-05-23T07:44:18;5.25;;;2.03;;
35839;SDS011;35514;50.504;30.500;2023-05-23T07:46:50;4.45;;;2.20;;
35839;SDS011;35514;50.504;30.500;2023-05-23T07:49:20;2.47;;;2.10;;
35839;SDS011;35514;50.504;30.500;2023-05-23T07:51:48;3.55;;;2.10;;
35839;SDS011;35514;50.504;30.500;2023-05-23T07:54:15;6.05;;;2.38;;
35839;SDS011;35514;50.504;30.500;2023-05-23T07:56:44;5.85;;;2.13;;
35839;SDS011;35514;50.504;30.500;2023-05-23T07:59:19;4.28;;;2.50;;
35839;SDS011;35514;50.504;30.500;2023-05-23T08:02:03;4.75;;;2.70;;
35839;SDS011;35514;50.504;30.500;2023-05-23T08:04:33;5.50;;;1.90;;
35839;SDS011;35514;50.504;30.500;2023-05-23T08:07:00;6.13;;;2.13;;
35839;SDS011;35514;50.504;30.500;2023-05-23T08:09:52;6.40;;;1.83;;
35839;SDS011;35514;50.504;30.500;2023-05-23T08:12:26;4.45;;;1.67;;
35839;SDS011;35514;50.504;30.500;2023-05-23T08:14:56;9.52;;;2.42;;
35839;SDS011;35514;50.504;30.500;2023-05-23T08:17:27;3.83;;;1.77;;
35839;SDS011;35514;50.504;30.500;2023-05-23T08:19:55;5.75;;;2.20;;
35839;SDS011;35514;50.504;30.500;2023-05-23T08:22:27;4.28;;;1.80;;
35839;SDS011;35514;50.504;30.500;2023-05-23T08:24:57;2.75;;;1.98;;
35839;SDS011;35514;50.504;30.500;2023-05-23T08:27:25;5.63;;;2.33;;
35839;SDS011;35514;50.504;30.500;2023-05-23T08:29:53;3.72;;;2.00;;
35839;SDS011;35514;50.504;30.500;2023-05-23T08:32:24;3.55;;;1.73;;
35839;SDS011;35514;50.504;30.500;2023-05-23T08:34:52;2.88;;;1.83;;
35839;SDS011;35514;50.504;30.500;2023-05-23T08:37:20;3.03;;;1.98;;
35839;SDS011;35514;50.504;30.500;2023-05-23T08:39:48;4.55;;;2.08;;
35839;SDS011;35514;50.504;30.500;2023-05-23T08:42:18;3.15;;;1.70;;
35839;SDS011;35514;50.504;30.500;2023-05-23T08:44:46;6.10;;;1.90;;
35839;SDS011;35514;50.504;30.500;2023-05-23T08:47:16;5.97;;;1.92;;
35839;SDS011;35514;50.504;30.500;2023-05-23T08:49:46;3.50;;;2.15;;
35839;SDS011;35514;50.504;30.500;2023-05-23T08:52:15;7.95;;;1.98;;
35839;SDS011;35514;50.504;30.500;2023-05-23T08:54:44;6.90;;;2.00;;
35839;SDS011;35514;50.504;30.500;2023-05-23T08:57:13;2.95;;;1.80;;
35839;SDS011;35514;50.504;30.500;2023-05-23T08:59:41;6.55;;;1.85;;
35839;SDS011;35514;50.504;30.500;2023-05-23T09:02:09;2.30;;;1.73;;
35839;SDS011;35514;50.504;30.500;2023-05-23T09:04:38;7.15;;;2.40;;
35839;SDS011;35514;50.504;30.500;2023-05-23T09:07:08;4.40;;;2.00;;
35839;SDS011;35514;50.504;30.500;2023-05-23T09:09:36;7.85;;;2.35;;
35839;SDS011;35514;50.504;30.500;2023-05-23T09:12:04;11.50;;;2.20;;
35839;SDS011;35514;50.504;30.500;2023-05-23T09:14:32;3.40;;;1.42;;
35839;SDS011;35514;50.504;30.500;2023-05-23T09:16:59;5.80;;;1.77;;
35839;SDS011;35514;50.504;30.500;2023-05-23T09:19:30;4.00;;;1.70;;
35839;SDS011;35514;50.504;30.500;2023-05-23T09:22:01;7.45;;;1.60;;
35839;SDS011;35514;50.504;30.500;2023-05-23T09:24:36;2.97;;;1.70;;
35839;SDS011;35514;50.504;30.500;2023-05-23T09:27:05;9.30;;;2.00;;
35839;SDS011;35514;50.504;30.500;2023-05-23T09:29:35;3.17;;;1.60;;
35839;SDS011;35514;50.504;30.500;2023-05-23T09:32:09;2.38;;;1.70;;
35839;SDS011;35514;50.504;30.500;2023-05-23T09:34:39;3.30;;;2.05;;
35839;SDS011;35514;50.504;30.500;2023-05-23T09:37:10;10.95;;;2.20;;
35839;SDS011;35514;50.504;30.500;2023-05-23T09:39:40;5.40;;;1.80;;
35839;SDS011;35514;50.504;30.500;2023-05-23T09:42:15;6.65;;;1.92;;
35839;SDS011;35514;50.504;30.500;2023-05-23T09:44:44;3.38;;;1.70;;
35839;SDS011;35514;50.504;30.500;2023-05-23T09:47:13;5.10;;;1.75;;
35839;SDS011;35514;50.504;30.500;2023-05-23T09:49:42;5.15;;;2.10;;
35839;SDS011;35514;50.504;30.500;2023-05-23T09:52:10;4.10;;;1.65;;
35839;SDS011;35514;50.504;30.500;2023-05-23T09:54:40;9.32;;;1.88;;
35839;SDS011;35514;50.504;30.500;2023-05-23T09:57:09;5.82;;;1.85;;
35839;SDS011;35514;50.504;30.500;2023-05-23T09:59:38;4.60;;;1.75;;
35839;SDS011;35514;50.504;30.500;2023-05-23T10:02:07;4.97;;;1.73;;
35839;SDS011;35514;50.504;30.500;2023-05-23T10:04:38;5.70;;;1.77;;
35839;SDS011;35514;50.504;30.500;2023-05-23T10:07:09;5.93;;;2.22;;
35839;SDS011;35514;50.504;30.500;2023-05-23T10:09:37;3.38;;;1.98;;
35839;SDS011;35514;50.504;30.500;2023-05-23T10:14:57;3.28;;;1.63;;
35839;SDS011;35514;50.504;30.500;2023-05-23T10:17:27;4.78;;;2.05;;
35839;SDS011;35514;50.504;30.500;2023-05-23T10:19:59;4.40;;;1.63;;
35839;SDS011;35514;50.504;30.500;2023-05-23T10:22:28;9.20;;;2.10;;
35839;SDS011;35514;50.504;30.500;2023-05-23T10:24:56;12.82;;;1.60;;
35839;SDS011;35514;50.504;30.500;2023-05-23T10:27:23;4.00;;;1.75;;
35839;SDS011;35514;50.504;30.500;2023-05-23T10:29:52;3.60;;;1.48;;
35839;SDS011;35514;50.504;30.500;2023-05-23T10:32:22;10.15;;;1.73;;
35839;SDS011;35514;50.504;30.500;2023-05-23T10:34:53;7.25;;;2.97;;
35839;SDS011;35514;50.504;30.500;2023-05-23T10:37:24;9.00;;;3.15;;
35839;SDS011;35514;50.504;30.500;2023-05-23T10:39:56;15.18;;;1.75;;
35839;SDS011;35514;50.504;30.500;2023-05-23T10:42:29;13.07;;;1.77;;
35839;SDS011;35514;50.504;30.500;2023-05-23T10:45:13;6.20;;;1.77;;
35839;SDS011;35514;50.504;30.500;2023-05-23T10:47:43;4.82;;;1.65;;
35839;SDS011;35514;50.504;30.500;2023-05-23T10:50:11;2.95;;;2.20;;
35839;SDS011;35514;50.504;30.500;2023-05-23T10:52:42;5.13;;;1.83;;
35839;SDS011;35514;50.504;30.500;2023-05-23T10:55:13;2.95;;;1.50;;
35839;SDS011;35514;50.504;30.500;2023-05-23T10:57:43;4.78;;;1.80;;
35839;SDS011;35514;50.504;30.500;2023-05-23T11:00:12;5.45;;;2.25;;
35839;SDS011;35514;50.504;30.500;2023-05-23T11:02:46;5.85;;;2.00;;
35839;SDS011;35514;50.504;30.500;2023-05-23T11:05:20;4.10;;;1.58;;
35839;SDS011;35514;50.504;30.500;2023-05-23T11:08:07;3.55;;;1.80;;
35839;SDS011;35514;50.504;30.500;2023-05-23T11:13:18;6.68;;;1.63;;
35839;SDS011;35514;50.504;30.500;2023-05-23T11:15:47;7.05;;;1.60;;
35839;SDS011;35514;50.504;30.500;2023-05-23T11:18:20;5.88;;;1.60;;
35839;SDS011;35514;50.504;30.500;2023-05-23T11:20:49;10.15;;;1.75;;
35839;SDS011;35514;50.504;30.500;2023-05-23T11:23:21;6.43;;;2.03;;
35839;SDS011;35514;50.504;30.500;2023-05-23T11:25:49;6.40;;;2.42;;
35839;SDS011;35514;50.504;30.500;2023-05-23T11:28:18;4.85;;;1.98;;
35839;SDS011;35514;50.504;30.500;2023-05-23T11:30:47;3.53;;;1.80;;
35839;SDS011;35514;50.504;30.500;2023-05-23T11:33:15;3.95;;;2.17;;
35839;SDS011;35514;50.504;30.500;2023-05-23T11:35:45;5.20;;;2.00;;
35839;SDS011;35514;50.504;30.500;2023-05-23T11:38:13;6.80;;;2.55;;
35839;SDS011;35514;50.504;30.500;2023-05-23T11:40:41;4.57;;;1.60;;
35839;SDS011;35514;50.504;30.500;2023-05-23T11:43:10;7.97;;;2.15;;
35839;SDS011;35514;50.504;30.500;2023-05-23T11:45:39;2.55;;;1.45;;
35839;SDS011;35514;50.504;30.500;2023-05-23T11:48:07;3.25;;;1.80;;
35839;SDS011;35514;50.504;30.500;2023-05-23T11:50:45;3.30;;;1.98;;
35839;SDS011;35514;50.504;30.500;2023-05-23T11:53:13;6.88;;;1.98;;
35839;SDS011;35514;50.504;30.500;2023-05-23T11:55:47;6.28;;;2.08;;
35839;SDS011;35514;50.504;30.500;2023-05-23T11:58:15;5.97;;;2.47;;
35839;SDS011;35514;50.504;30.500;2023-05-23T12:00:43;6.68;;;2.13;;
35839;SDS011;35514;50.504;30.500;2023-05-23T12:03:11;4.32;;;2.00;;
35839;SDS011;35514;50.504;30.500;2023-05-23T12:05:41;6.30;;;2.13;;
35839;SDS011;35514;50.504;30.500;2023-05-23T12:08:11;4.85;;;2.03;;
35839;SDS011;35514;50.504;30.500;2023-05-23T12:10:48;10.45;;;1.95;;
35839;SDS011;35514;50.504;30.500;2023-05-23T12:13:15;3.97;;;2.20;;
35839;SDS011;35514;50.504;30.500;2023-05-23T12:15:44;5.32;;;2.03;;
35839;SDS011;35514;50.504;30.500;2023-05-23T12:18:15;4.68;;;1.70;;
35839;SDS011;35514;50.504;30.500;2023-05-23T12:20:42;8.27;;;2.38;;
35839;SDS011;35514;50.504;30.500;2023-05-23T12:23:17;4.43;;;2.03;;
35839;SDS011;35514;50.504;30.500;2023-05-23T12:25:48;5.32;;;1.58;;
35839;SDS011;35514;50.504;30.500;2023-05-23T12:28:17;3.28;;;1.98;;
35839;SDS011;35514;50.504;30.500;2023-05-23T12:30:45;3.97;;;1.92;;
35839;SDS011;35514;50.504;30.500;2023-05-23T12:33:16;9.60;;;2.28;;
35839;SDS011;35514;50.504;30.500;2023-05-23T12:35:46;9.33;;;1.77;;
35839;SDS011;35514;50.504;30.500;2023-05-23T12:38:17;6.45;;;2.05;;
35839;SDS011;35514;50.504;30.500;2023-05-23T12:40:45;4.28;;;1.90;;
35839;SDS011;35514;50.504;30.500;2023-05-23T12:43:14;12.13;;;2.10;;
35839;SDS011;35514;50.504;30.500;2023-05-23T12:46:05;4.43;;;2.03;;
35839;SDS011;35514;50.504;30.500;2023-05-23T12:48:33;4.50;;;2.28;;
35839;SDS011;35514;50.504;30.500;2023-05-23T12:51:02;9.15;;;2.00;;
35839;SDS011;35514;50.504;30.500;2023-05-23T12:53:31;6.93;;;1.90;;
35839;SDS011;35514;50.504;30.500;2023-05-23T12:55:58;7.32;;;2.40;;
35839;SDS011;35514;50.504;30.500;2023-05-23T12:58:27;3.72;;;2.13;;
35839;SDS011;35514;50.504;30.500;2023-05-23T13:00:56;8.15;;;2.92;;
35839;SDS011;35514;50.504;30.500;2023-05-23T13:03:24;9.13;;;2.40;;
35839;SDS011;35514;50.504;30.500;2023-05-23T13:05:53;3.55;;;1.98;;
35839;SDS011;35514;50.504;30.500;2023-05-23T13:08:22;4.95;;;2.50;;
35839;SDS011;35514;50.504;30.500;2023-05-23T13:13:24;4.38;;;1.88;;
35839;SDS011;35514;50.504;30.500;2023-05-23T13:15:52;6.47;;;2.33;;
35839;SDS011;35514;50.504;30.500;2023-05-23T13:18:20;4.80;;;1.90;;
35839;SDS011;35514;50.504;30.500;2023-05-23T13:20:48;6.97;;;2.28;;
35839;SDS011;35514;50.504;30.500;2023-05-23T13:23:16;4.65;;;1.80;;
35839;SDS011;35514;50.504;30.500;2023-05-23T13:25:44;7.65;;;1.92;;
35839;SDS011;35514;50.504;30.500;2023-05-23T13:28:12;8.75;;;2.10;;
35839;SDS011;35514;50.504;30.500;2023-05-23T13:30:41;10.73;;;2.33;;
35839;SDS011;35514;50.504;30.500;2023-05-23T13:33:12;6.43;;;2.30;;
35839;SDS011;35514;50.504;30.500;2023-05-23T13:35:40;7.47;;;2.45;;
35839;SDS011;35514;50.504;30.500;2023-05-23T13:38:08;3.63;;;1.70;;
35839;SDS011;35514;50.504;30.500;2023-05-23T13:40:37;2.88;;;1.70;;
35839;SDS011;35514;50.504;30.500;2023-05-23T13:43:06;5.55;;;2.10;;
35839;SDS011;35514;50.504;30.500;2023-05-23T13:45:35;9.73;;;2.25;;
35839;SDS011;35514;50.504;30.500;2023-05-23T13:48:04;4.95;;;2.40;;
35839;SDS011;35514;50.504;30.500;2023-05-23T13:50:31;10.10;;;2.55;;
35839;SDS011;35514;50.504;30.500;2023-05-23T13:52:59;12.98;;;2.55;;
35839;SDS011;35514;50.504;30.500;2023-05-23T13:55:28;8.98;;;1.75;;
35839;SDS011;35514;50.504;30.500;2023-05-23T13:57:56;4.88;;;1.90;;
35839;SDS011;35514;50.504;30.500;2023-05-23T14:00:24;18.05;;;1.88;;
35839;SDS011;35514;50.504;30.500;2023-05-23T14:02:52;8.68;;;1.88;;
35839;SDS011;35514;50.504;30.500;2023-05-23T14:05:21;3.70;;;1.40;;
35839;SDS011;35514;50.504;30.500;2023-05-23T14:07:49;4.00;;;2.13;;
35839;SDS011;35514;50.504;30.500;2023-05-23T14:10:16;8.10;;;2.10;;
35839;SDS011;35514;50.504;30.500;2023-05-23T14:12:44;6.40;;;1.77;;
35839;SDS011;35514;50.504;30.500;2023-05-23T14:15:11;8.35;;;1.95;;
35839;SDS011;35514;50.504;30.500;2023-05-23T14:17:40;7.75;;;2.20;;
35839;SDS011;35514;50.504;30.500;2023-05-23T14:20:08;7.43;;;1.92;;
35839;SDS011;35514;50.504;30.500;2023-05-23T14:22:38;5.50;;;1.70;;
35839;SDS011;35514;50.504;30.500;2023-05-23T14:25:06;3.72;;;1.92;;
35839;SDS011;35514;50.504;30.500;2023-05-23T14:27:34;10.30;;;2.40;;
35839;SDS011;35514;50.504;30.500;2023-05-23T14:30:02;5.75;;;1.67;;
35839;SDS011;35514;50.504;30.500;2023-05-23T14:32:31;6.15;;;1.65;;
35839;SDS011;35514;50.504;30.500;2023-05-23T14:35:05;9.15;;;3.17;;
35839;SDS011;35514;50.504;30.500;2023-05-23T14:37:35;12.23;;;2.17;;
35839;SDS011;35514;50.504;30.500;2023-05-23T14:40:04;7.35;;;2.05;;
35839;SDS011;35514;50.504;30.500;2023-05-23T14:42:32;5.18;;;1.90;;
35839;SDS011;35514;50.504;30.500;2023-05-23T14:45:01;15.75;;;2.42;;
35839;SDS011;35514;50.504;30.500;2023-05-23T14:47:30;10.27;;;2.40;;
35839;SDS011;35514;50.504;30.500;2023-05-23T14:49:59;10.82;;;2.85;;
35839;SDS011;35514;50.504;30.500;2023-05-23T14:52:29;6.40;;;1.95;;
35839;SDS011;35514;50.504;30.500;2023-05-23T14:54:57;3.08;;;1.90;;
35839;SDS011;35514;50.504;30.500;2023-05-23T14:57:27;4.53;;;1.90;;
35839;SDS011;35514;50.504;30.500;2023-05-23T14:59:55;11.73;;;2.33;;
35839;SDS011;35514;50.504;30.500;2023-05-23T15:02:23;8.40;;;2.40;;
35839;SDS011;35514;50.504;30.500;2023-05-23T15:04:51;7.13;;;2.42;;
35839;SDS011;35514;50.504;30.500;2023-05-23T15:07:20;4.13;;;2.03;;
35839;SDS011;35514;50.504;30.500;2023-05-23T15:09:48;13.60;;;1.92;;
35839;SDS011;35514;50.504;30.500;2023-05-23T15:12:16;6.57;;;1.88;;